Date,TemperatureHighF,TemperatureAvgF,TemperatureLowF,DewpointHighF,DewpointAvgF,DewpointLowF,HumidityHigh,HumidityAvg,HumidityLow,PressureMaxIn,PressureMinIn,WindSpeedMaxMPH,WindSpeedAvgMPH,GustSpeedMaxMPH,PrecipitationSumIn
2013-10-1,91.4,77.2,64.0,68.3,63.6,58.6,95,66,35,29.81,29.71,15,3,15,0.00
2013-10-2,89.3,78.6,70.2,69.9,67.0,63.6,91,69,47,29.85,29.72,17,4,17,0.00
2013-10-3,90.5,78.5,67.8,69.7,65.5,62.4,92,67,42,29.82,29.68,20,4,20,0.00
2013-10-4,89.3,79.4,73.1,69.6,67.1,63.0,83,67,46,29.80,29.69,24,4,24,0.00
2013-10-5,76.2,60.8,47.5,66.5,50.5,38.6,92,70,45,30.13,29.76,14,2,18,0.14
2013-10-6,78.3,59.8,42.0,47.2,39.9,28.9,95,57,17,30.25,30.11,13,1,13,0.00
2013-10-7,84.0,65.3,45.4,45.4,40.5,33.0,79,45,17,30.19,30.03,8,1,8,0.00
2013-10-8,83.7,65.9,48.2,50.5,44.9,40.9,88,51,24,30.05,29.89,15,2,15,0.00
2013-10-9,84.9,69.0,55.2,58.2,52.3,44.2,75,57,38,29.98,29.84,18,3,18,0.00
2013-10-10,86.0,72.8,61.5,62.6,57.3,51.7,87,61,33,29.92,29.74,21,4,21,0.00
2013-10-11,89.5,76.1,66.4,67.7,59.3,44.8,89,60,23,29.85,29.72,18,3,18,0.00
2013-10-12,88.4,75.6,65.2,70.4,64.2,55.7,86,69,45,29.97,29.81,14,2,14,0.00
2013-10-13,77.8,70.1,65.5,69.1,65.8,61.8,94,86,69,30.08,29.95,16,3,16,0.22
2013-10-14,79.6,71.1,67.1,70.6,67.5,65.6,96,89,73,30.06,29.82,17,2,17,0.16
2013-10-15,71.7,60.9,48.5,68.8,58.9,47.0,96,93,89,30.09,29.85,16,2,16,0.77
2013-10-16,62.6,54.8,47.9,50.7,47.9,46.2,95,79,62,30.16,30.06,12,2,17,0.01
2013-10-17,74.0,58.2,42.9,55.9,49.6,41.6,96,75,47,30.16,29.93,11,1,11,0.00
2013-10-18,75.2,62.3,47.4,63.5,56.7,40.6,93,82,66,30.15,29.83,19,3,30,0.34
2013-10-19,63.6,50.2,38.4,43.5,38.8,34.6,90,68,35,30.28,30.10,15,2,16,0.00
2013-10-20,76.5,59.1,42.0,57.8,49.9,39.9,95,73,51,30.10,29.81,17,3,17,0.00
2013-10-21,69.0,61.1,54.1,57.1,53.1,48.4,94,76,57,30.15,29.85,17,2,17,0.00
2013-10-22,74.5,57.5,41.4,49.7,43.9,39.2,95,66,30,30.24,30.10,8,1,8,0.00
2013-10-23,78.8,60.4,43.1,48.2,43.1,38.4,88,58,25,30.19,30.06,14,2,15,0.00
2013-10-24,77.8,60.5,44.9,52.4,46.6,42.0,93,64,35,30.22,30.10,14,2,14,0.00
2013-10-25,76.2,60.8,48.4,55.8,49.6,44.6,88,69,37,30.31,30.13,16,2,16,0.00
2013-10-26,79.4,67.6,59.3,62.4,58.7,52.6,90,74,54,30.15,30.00,21,2,21,0.00
2013-10-27,71.3,62.2,55.5,58.9,53.7,49.7,90,74,57,30.14,29.95,10,1,10,0.00
2013-10-28,81.4,69.0,56.8,66.5,61.5,54.6,94,79,55,29.99,29.84,19,3,19,0.00
2013-10-29,81.0,73.9,69.4,68.6,66.5,63.3,92,78,64,29.96,29.85,13,4,17,0.12
2013-10-30,73.0,70.6,68.3,68.8,66.9,63.3,93,88,81,29.90,29.70,18,4,18,0.07
2013-10-31,73.7,66.1,50.9,63.5,41.9,27.2,81,46,18,29.92,29.71,24,4,24,0.00